createdAt,value
2022-11-20T00:00:56.606Z,-1.49
2022-11-20T00:03:28.265Z,-1.46
2022-11-20T00:06:04.412Z,-1.45
2022-11-20T00:08:37.068Z,-1.40
2022-11-20T00:11:16.319Z,-1.38
2022-11-20T00:13:53.905Z,-1.35
2022-11-20T00:16:27.720Z,-1.34
2022-11-20T00:18:59.317Z,-1.36
2022-11-20T00:21:31.221Z,-1.36
2022-11-20T00:24:02.846Z,-1.33
2022-11-20T00:26:34.569Z,-1.29
2022-11-20T00:29:06.229Z,-1.23
2022-11-20T00:31:37.807Z,-1.18
2022-11-20T00:34:11.064Z,-1.17
2022-11-20T00:36:42.687Z,-1.15
2022-11-20T00:39:14.383Z,-1.15
2022-11-20T00:41:46.046Z,-1.13
2022-11-20T00:44:17.664Z,-1.12
2022-11-20T00:46:49.251Z,-1.10
2022-11-20T00:49:21.224Z,-1.07
2022-11-20T00:51:53.119Z,-1.04
2022-11-20T00:54:24.863Z,-0.98
2022-11-20T00:56:56.544Z,-0.95
2022-11-20T00:59:28.668Z,-0.93
2022-11-20T01:02:01.677Z,-0.91
2022-11-20T01:04:33.257Z,-0.97
2022-11-20T01:07:04.916Z,-1.08
2022-11-20T01:09:36.524Z,-1.04
2022-11-20T01:12:08.350Z,-1.00
2022-11-20T01:14:39.891Z,-0.95
2022-11-20T01:17:11.533Z,-1.05
2022-11-20T01:19:43.115Z,-1.06
2022-11-20T01:22:14.798Z,-1.08
2022-11-20T01:24:46.477Z,-1.21
2022-11-20T01:27:18.059Z,-1.26
2022-11-20T01:29:49.620Z,-1.24
2022-11-20T01:32:21.252Z,-1.16
2022-11-20T01:34:52.778Z,-1.14
2022-11-20T01:37:24.450Z,-1.18
2022-11-20T01:39:56.004Z,-1.21
2022-11-20T01:42:46.646Z,-1.26
2022-11-20T01:46:03.442Z,-1.24
2022-11-20T01:49:03.463Z,-1.29
2022-11-20T01:51:34.919Z,-1.37
2022-11-20T01:54:13.056Z,-1.34
2022-11-20T01:56:46.848Z,-1.40
2022-11-20T01:59:21.044Z,-1.45
2022-11-20T02:01:54.665Z,-1.48
2022-11-20T02:04:26.872Z,-1.40
2022-11-20T02:07:01.597Z,-1.37
2022-11-20T02:09:33.130Z,-1.37
2022-11-20T02:12:05.208Z,-1.25
2022-11-20T02:14:36.828Z,-1.11
2022-11-20T02:17:09.352Z,-1.02
2022-11-20T02:19:41.023Z,-1.02
2022-11-20T02:22:35.132Z,-0.93
2022-11-20T02:25:12.348Z,-0.91
2022-11-20T02:27:44.152Z,-0.81
2022-11-20T02:30:15.788Z,-0.80
2022-11-20T02:32:47.504Z,-0.76
2022-11-20T02:35:19.254Z,-0.74
2022-11-20T02:38:01.439Z,-0.68
2022-11-20T02:40:33.219Z,-0.77
2022-11-20T02:43:04.971Z,-0.75
2022-11-20T02:45:36.680Z,-0.78
2022-11-20T02:48:08.800Z,-0.75
2022-11-20T02:50:41.027Z,-0.79
2022-11-20T02:53:12.665Z,-0.85
2022-11-20T02:55:44.328Z,-1.05
2022-11-20T02:58:15.928Z,-1.07
2022-11-20T03:00:49.843Z,-1.17
2022-11-20T03:03:21.414Z,-1.27
2022-11-20T03:05:56.081Z,-1.34
2022-11-20T03:08:27.694Z,-1.41
2022-11-20T03:11:04.219Z,-1.38
2022-11-20T03:13:37.405Z,-1.26
2022-11-20T03:16:15.165Z,-1.15
2022-11-20T03:18:47.218Z,-1.10
2022-11-20T03:21:18.913Z,-1.06
2022-11-20T03:23:50.448Z,-0.96
2022-11-20T03:26:24.972Z,-0.93
2022-11-20T03:28:59.108Z,-0.94
2022-11-20T03:31:41.511Z,-0.93
2022-11-20T03:34:13.337Z,-0.89
2022-11-20T03:36:45.091Z,-0.97
2022-11-20T03:39:16.704Z,-0.89
2022-11-20T03:41:48.777Z,-0.88
2022-11-20T03:44:22.315Z,-0.92
2022-11-20T03:46:53.927Z,-1.03
2022-11-20T03:49:25.449Z,-1.06
2022-11-20T03:51:57.323Z,-1.10
2022-11-20T03:54:28.863Z,-1.07
2022-11-20T03:57:00.455Z,-1.01
2022-11-20T03:59:32.252Z,-0.93
2022-11-20T04:02:03.953Z,-0.93
2022-11-20T04:04:37.521Z,-0.99
2022-11-20T04:07:09.830Z,-0.96
2022-11-20T04:09:41.465Z,-0.94
2022-11-20T04:12:15.720Z,-1.01
2022-11-20T04:14:47.309Z,-1.16
2022-11-20T04:17:18.923Z,-1.26
2022-11-20T04:19:50.502Z,-1.36
2022-11-20T04:22:22.130Z,-1.43
2022-11-20T04:24:53.741Z,-1.50
2022-11-20T04:27:25.405Z,-1.54
2022-11-20T04:29:56.993Z,-1.58
2022-11-20T04:32:29.737Z,-1.57
2022-11-20T04:35:01.311Z,-1.58
2022-11-20T04:37:32.898Z,-1.56
2022-11-20T04:40:04.912Z,-1.58
2022-11-20T04:42:36.487Z,-1.69
2022-11-20T04:45:08.376Z,-1.70
2022-11-20T04:47:39.984Z,-1.70
2022-11-20T04:50:11.740Z,-1.75
2022-11-20T04:52:43.377Z,-1.74
2022-11-20T04:55:15.003Z,-1.76
2022-11-20T04:57:46.621Z,-1.79
2022-11-20T05:00:18.336Z,-1.88
2022-11-20T05:02:50.083Z,-1.94
2022-11-20T05:05:21.671Z,-1.98
2022-11-20T05:07:58.516Z,-1.98
2022-11-20T05:10:29.975Z,-2.03
2022-11-20T05:13:01.540Z,-2.16
2022-11-20T05:15:33.467Z,-2.13
2022-11-20T05:18:05.264Z,-2.06
2022-11-20T05:20:37.310Z,-2.02
2022-11-20T05:23:08.883Z,-2.09
2022-11-20T05:25:40.445Z,-2.13
2022-11-20T05:28:12.081Z,-2.16
2022-11-20T05:30:43.666Z,-2.15
2022-11-20T05:33:15.648Z,-2.14
2022-11-20T05:35:47.271Z,-2.11
2022-11-20T05:38:18.852Z,-2.19
2022-11-20T05:40:50.593Z,-2.18
2022-11-20T05:43:22.443Z,-2.27
2022-11-20T05:45:57.852Z,-2.22
2022-11-20T05:48:29.487Z,-2.15
2022-11-20T05:51:05.563Z,-2.16
2022-11-20T05:53:37.456Z,-2.13
2022-11-20T05:56:12.644Z,-2.09
2022-11-20T05:58:49.666Z,-2.03
2022-11-20T06:01:26.856Z,-2.04
2022-11-20T06:03:58.463Z,-1.98
2022-11-20T06:06:30.011Z,-1.90
2022-11-20T06:09:01.620Z,-1.90
2022-11-20T06:11:33.231Z,-1.87
2022-11-20T06:14:04.856Z,-1.85
2022-11-20T06:16:36.439Z,-1.78
2022-11-20T06:19:08.046Z,-1.77
2022-11-20T06:21:39.837Z,-1.76
2022-11-20T06:24:12.138Z,-1.78
2022-11-20T06:26:44.079Z,-1.77
2022-11-20T06:29:15.710Z,-1.78
2022-11-20T06:31:47.412Z,-1.79
2022-11-20T06:34:18.984Z,-1.78
2022-11-20T06:36:53.651Z,-1.82
2022-11-20T06:39:25.310Z,-1.85
2022-11-20T06:41:58.964Z,-1.78
2022-11-20T06:44:31.014Z,-1.69
2022-11-20T06:47:02.763Z,-1.61
2022-11-20T06:49:35.441Z,-1.53
2022-11-20T06:52:07.233Z,-1.49
2022-11-20T06:54:39.009Z,-1.44
2022-11-20T06:57:10.701Z,-1.44
2022-11-20T06:59:42.321Z,-1.42
2022-11-20T07:02:14.025Z,-1.41
2022-11-20T07:04:48.676Z,-1.37
2022-11-20T07:07:20.374Z,-1.37
2022-11-20T07:09:52.038Z,-1.37
2022-11-20T07:12:23.572Z,-1.34
2022-11-20T07:14:55.782Z,-1.35
2022-11-20T07:17:27.645Z,-1.40
2022-11-20T07:19:59.292Z,-1.45
2022-11-20T07:22:30.901Z,-1.38
2022-11-20T07:25:05.948Z,-1.30
2022-11-20T07:27:37.539Z,-1.27
2022-11-20T07:30:09.769Z,-1.26
2022-11-20T07:32:41.686Z,-1.22
2022-11-20T07:35:13.880Z,-1.10
2022-11-20T07:37:49.537Z,-1.02
2022-11-20T07:40:21.343Z,-0.97
2022-11-20T07:42:56.401Z,-0.91
2022-11-20T07:45:27.975Z,-0.80
2022-11-20T07:47:59.566Z,-0.68
2022-11-20T07:50:36.415Z,-0.54
2022-11-20T07:53:08.261Z,-0.47
2022-11-20T07:55:41.208Z,-0.48
2022-11-20T07:58:12.878Z,-0.52
2022-11-20T08:00:44.600Z,-0.45
2022-11-20T08:03:20.265Z,-0.36
2022-11-20T08:06:01.344Z,-0.33
2022-11-20T08:08:34.202Z,-0.33
2022-11-20T08:11:36.036Z,-0.39
2022-11-20T08:14:14.009Z,-0.44
2022-11-20T08:16:48.103Z,-0.45
2022-11-20T08:19:20.437Z,-0.47
2022-11-20T08:21:52.275Z,-0.50
2022-11-20T08:24:23.936Z,-0.54
2022-11-20T08:26:58.864Z,-0.50
2022-11-20T08:29:30.528Z,-0.46
2022-11-20T08:32:02.175Z,-0.37
2022-11-20T08:34:33.754Z,-0.33
2022-11-20T08:37:05.512Z,-0.29
2022-11-20T08:39:37.125Z,-0.25
2022-11-20T08:42:09.472Z,-0.19
2022-11-20T08:44:41.049Z,-0.19
2022-11-20T08:47:12.699Z,-0.27
2022-11-20T08:49:44.370Z,-0.21
2022-11-20T08:52:15.997Z,-0.10
2022-11-20T08:54:47.636Z,-0.06
2022-11-20T08:57:19.256Z,0.04
2022-11-20T09:00:05.443Z,0.00
2022-11-20T09:02:39.087Z,-0.02
2022-11-20T09:05:10.789Z,-0.05
2022-11-20T09:07:43.157Z,-0.07
2022-11-20T09:10:30.425Z,0.00
2022-11-20T09:13:02.646Z,0.07
2022-11-20T09:15:34.898Z,0.08
2022-11-20T09:18:06.545Z,0.14
2022-11-20T09:20:38.337Z,0.20
2022-11-20T09:23:10.383Z,0.23
2022-11-20T09:25:42.403Z,0.26
2022-11-20T09:28:14.267Z,0.24
2022-11-20T09:30:45.936Z,0.25
2022-11-20T09:33:18.071Z,0.29
2022-11-20T09:35:49.701Z,0.31
2022-11-20T09:38:21.298Z,0.37
2022-11-20T09:40:59.190Z,0.40
2022-11-20T09:43:42.544Z,0.41
2022-11-20T09:46:30.577Z,0.37
2022-11-20T09:49:08.252Z,0.38
2022-11-20T09:51:59.077Z,0.29
2022-11-20T09:54:34.855Z,0.21
2022-11-20T09:57:12.579Z,0.26
2022-11-20T10:00:01.592Z,0.28
2022-11-20T10:03:04.892Z,0.27
2022-11-20T10:05:42.337Z,0.32
2022-11-20T10:08:23.096Z,0.38
2022-11-20T10:11:05.585Z,0.38
2022-11-20T10:13:49.314Z,0.44
2022-11-20T10:16:42.593Z,0.44
2022-11-20T10:19:31.069Z,0.51
2022-11-20T10:22:21.204Z,0.57
2022-11-20T10:24:52.685Z,0.62
2022-11-20T10:27:33.309Z,0.66
2022-11-20T10:30:12.221Z,0.71
2022-11-20T10:32:47.992Z,0.72
2022-11-20T10:35:29.065Z,0.71
2022-11-20T10:38:03.969Z,0.66
2022-11-20T10:40:39.302Z,0.66
2022-11-20T10:43:32.903Z,0.66
2022-11-20T10:46:09.634Z,0.60
2022-11-20T10:48:44.184Z,0.59
2022-11-20T10:51:18.822Z,0.59
2022-11-20T10:54:12.082Z,0.64
2022-11-20T10:56:57.117Z,0.68
2022-11-20T10:59:44.706Z,0.71
2022-11-20T11:02:34.465Z,0.78
2022-11-20T11:05:29.878Z,0.82
2022-11-20T11:08:01.741Z,0.79
2022-11-20T11:10:43.195Z,0.85
2022-11-20T11:13:40.765Z,0.99
2022-11-20T11:16:27.526Z,1.16
2022-11-20T11:19:14.497Z,1.24
2022-11-20T11:21:55.003Z,1.35
2022-11-20T11:24:42.067Z,1.36
2022-11-20T11:27:18.818Z,1.31
2022-11-20T11:29:51.307Z,1.39
2022-11-20T11:32:23.183Z,1.51
2022-11-20T11:35:07.448Z,1.62
2022-11-20T11:37:40.527Z,1.72
2022-11-20T11:40:28.299Z,1.89
2022-11-20T11:43:26.794Z,2.15
2022-11-20T11:45:58.583Z,2.25
2022-11-20T11:48:30.256Z,2.24
2022-11-20T11:51:01.848Z,2.25
2022-11-20T11:53:40.089Z,2.37
2022-11-20T11:56:14.537Z,2.46
2022-11-20T11:58:49.315Z,2.49
2022-11-20T12:01:45.178Z,2.54
2022-11-20T12:04:22.544Z,2.56
2022-11-20T12:07:31.127Z,2.54
2022-11-20T12:10:02.969Z,2.61
2022-11-20T12:12:42.547Z,2.60
2022-11-20T12:15:24.209Z,2.65
2022-11-20T12:17:56.268Z,2.51
2022-11-20T12:20:35.985Z,2.47
2022-11-20T12:23:19.980Z,2.30
2022-11-20T12:25:55.251Z,2.35
2022-11-20T12:28:52.843Z,2.42
2022-11-20T12:31:40.358Z,2.45
2022-11-20T12:34:33.503Z,2.39
2022-11-20T12:37:14.110Z,2.45
2022-11-20T12:39:51.617Z,2.46
2022-11-20T12:43:00.596Z,2.44
2022-11-20T12:45:50.460Z,2.42
2022-11-20T12:48:24.757Z,2.37
2022-11-20T12:51:15.632Z,2.35
2022-11-20T12:54:18.368Z,2.37
2022-11-20T12:56:52.654Z,2.39
2022-11-20T12:59:45.640Z,2.39
2022-11-20T13:02:28.742Z,2.27
2022-11-20T13:05:19.917Z,2.28
2022-11-20T13:07:54.040Z,2.35
2022-11-20T13:11:02.201Z,2.38
2022-11-20T13:13:43.408Z,2.26
2022-11-20T13:16:37.602Z,2.23
2022-11-20T13:19:13.443Z,2.29
2022-11-20T13:21:52.796Z,2.39
2022-11-20T13:24:27.685Z,2.46
2022-11-20T13:27:19.147Z,2.54
2022-11-20T13:30:15.544Z,2.52
2022-11-20T13:33:18.252Z,2.55
2022-11-20T13:36:23.625Z,2.54
2022-11-20T13:38:57.001Z,2.56
2022-11-20T13:41:38.908Z,2.58
2022-11-20T13:44:23.073Z,2.60
2022-11-20T13:46:54.842Z,2.62
2022-11-20T13:49:32.584Z,2.51
2022-11-20T13:52:42.635Z,2.47
2022-11-20T13:55:37.436Z,2.46
2022-11-20T13:58:25.673Z,2.50
2022-11-20T14:01:22.683Z,2.43
2022-11-20T14:04:10.126Z,2.42
2022-11-20T14:06:44.223Z,2.28
2022-11-20T14:09:32.991Z,2.19
2022-11-20T14:12:15.222Z,2.24
2022-11-20T14:14:52.239Z,2.27
2022-11-20T14:17:29.865Z,2.22
2022-11-20T14:20:15.184Z,2.16
2022-11-20T14:22:51.707Z,2.09
2022-11-20T14:25:28.259Z,2.02
2022-11-20T14:28:02.060Z,2.08
2022-11-20T14:30:45.695Z,2.12
2022-11-20T14:33:18.377Z,2.18
2022-11-20T14:35:53.270Z,2.19
2022-11-20T14:38:34.069Z,2.17
2022-11-20T14:41:38.509Z,2.15
2022-11-20T14:44:11.075Z,2.08
2022-11-20T14:46:43.369Z,2.12
2022-11-20T14:49:15.243Z,2.17
2022-11-20T14:51:47.571Z,2.17
2022-11-20T14:54:25.058Z,2.13
2022-11-20T14:57:03.074Z,2.09
2022-11-20T14:59:36.768Z,2.05
2022-11-20T15:02:14.102Z,2.01
2022-11-20T15:04:51.117Z,1.94
2022-11-20T15:07:26.566Z,1.94
2022-11-20T15:10:11.431Z,1.98
2022-11-20T15:13:01.058Z,1.97
2022-11-20T15:15:53.278Z,1.96
2022-11-20T15:18:45.742Z,1.95
2022-11-20T15:21:21.964Z,1.99
2022-11-20T15:23:54.682Z,2.01
2022-11-20T15:26:28.116Z,2.05
2022-11-20T15:28:59.915Z,2.06
2022-11-20T15:31:31.477Z,2.02
2022-11-20T15:34:03.100Z,1.97
2022-11-20T15:36:34.710Z,2.01
2022-11-20T15:39:08.228Z,2.02
2022-11-20T15:41:40.029Z,2.03
2022-11-20T15:44:14.792Z,2.04
2022-11-20T15:46:47.621Z,2.07
2022-11-20T15:49:23.791Z,2.08
2022-11-20T15:51:55.414Z,2.02
2022-11-20T15:54:27.307Z,2.02
2022-11-20T15:57:00.222Z,1.99
2022-11-20T15:59:34.014Z,2.00
2022-11-20T16:02:15.945Z,1.99
2022-11-20T16:04:50.928Z,1.96
2022-11-20T16:07:25.689Z,1.98
2022-11-20T16:09:57.613Z,1.99
2022-11-20T16:12:47.561Z,2.00
2022-11-20T16:15:39.761Z,1.98
2022-11-20T16:18:12.832Z,2.00
2022-11-20T16:20:49.037Z,1.98
2022-11-20T16:23:21.315Z,2.00
2022-11-20T16:25:53.052Z,2.02
2022-11-20T16:28:24.775Z,2.00
2022-11-20T16:30:56.368Z,2.03
2022-11-20T16:33:28.013Z,2.09
2022-11-20T16:36:07.887Z,2.13
2022-11-20T16:38:44.584Z,2.14
2022-11-20T16:41:19.176Z,2.16
2022-11-20T16:43:58.504Z,2.17
2022-11-20T16:46:32.092Z,2.12
2022-11-20T16:49:12.174Z,2.09
2022-11-20T16:51:47.026Z,2.04
2022-11-20T16:54:21.158Z,2.01
2022-11-20T16:56:54.243Z,1.95
2022-11-20T16:59:26.267Z,1.93
2022-11-20T17:01:57.901Z,1.87
2022-11-20T17:04:34.556Z,1.84
2022-11-20T17:07:08.087Z,1.81
2022-11-20T17:09:40.058Z,1.79
2022-11-20T17:12:11.713Z,1.82
2022-11-20T17:14:43.587Z,1.82
2022-11-20T17:17:15.264Z,1.84
2022-11-20T17:19:47.200Z,1.82
2022-11-20T17:22:18.822Z,1.81
2022-11-20T17:24:53.250Z,1.82
2022-11-20T17:27:24.904Z,1.83
2022-11-20T17:29:58.146Z,1.85
2022-11-20T17:32:29.865Z,1.88
2022-11-20T17:35:01.713Z,1.89
2022-11-20T17:37:33.258Z,1.92
2022-11-20T17:40:05.470Z,1.81
2022-11-20T17:42:37.109Z,1.82
2022-11-20T17:45:12.216Z,1.83
2022-11-20T17:47:46.466Z,1.83
2022-11-20T17:50:18.180Z,1.89
2022-11-20T17:52:49.780Z,1.93
2022-11-20T17:55:22.029Z,1.97
2022-11-20T17:57:53.742Z,2.00
2022-11-20T18:00:26.138Z,2.06
2022-11-20T18:02:57.845Z,2.10
2022-11-20T18:05:29.599Z,2.15
2022-11-20T18:08:01.202Z,2.19
2022-11-20T18:10:35.988Z,2.25
2022-11-20T18:13:07.562Z,2.28
2022-11-20T18:15:39.177Z,2.32
2022-11-20T18:18:12.995Z,2.35
2022-11-20T18:20:44.645Z,2.36
2022-11-20T18:23:16.371Z,2.38
2022-11-20T18:25:47.985Z,2.38
2022-11-20T18:28:20.106Z,2.40
2022-11-20T18:30:51.728Z,2.42
2022-11-20T18:33:28.256Z,2.44
2022-11-20T18:36:15.082Z,2.47
2022-11-20T18:38:48.997Z,2.48
2022-11-20T18:41:40.468Z,2.47
2022-11-20T18:44:38.699Z,2.47
2022-11-20T18:47:14.973Z,2.47
2022-11-20T18:49:53.043Z,2.45
2022-11-20T18:52:30.408Z,2.45
2022-11-20T18:55:04.022Z,2.41
2022-11-20T18:57:38.617Z,2.37
2022-11-20T19:00:11.039Z,2.37
2022-11-20T19:02:45.599Z,2.35
2022-11-20T19:05:17.372Z,2.34
2022-11-20T19:07:49.172Z,2.34
2022-11-20T19:10:21.420Z,2.27
2022-11-20T19:12:53.063Z,2.21
2022-11-20T19:15:24.659Z,2.13
2022-11-20T19:17:57.677Z,2.06
2022-11-20T19:20:29.637Z,2.07
2022-11-20T19:23:01.549Z,2.06
2022-11-20T19:25:37.871Z,2.05
2022-11-20T19:28:09.676Z,2.01
2022-11-20T19:30:43.010Z,2.01
2022-11-20T19:33:14.748Z,2.01
2022-11-20T19:35:46.364Z,2.00
2022-11-20T19:38:18.329Z,1.98
2022-11-20T19:40:50.026Z,1.97
2022-11-20T19:43:21.674Z,1.93
2022-11-20T19:45:53.465Z,1.92
2022-11-20T19:48:25.159Z,1.89
2022-11-20T19:50:56.814Z,1.86
2022-11-20T19:53:29.902Z,1.83
2022-11-20T19:56:01.968Z,1.86
2022-11-20T19:58:33.905Z,1.86
2022-11-20T20:01:09.098Z,1.86
2022-11-20T20:03:41.474Z,1.88
2022-11-20T20:06:19.825Z,1.86
2022-11-20T20:09:12.579Z,1.85
2022-11-20T20:11:48.168Z,1.85
2022-11-20T20:14:20.078Z,1.89
2022-11-20T20:16:53.715Z,1.92
2022-11-20T20:19:25.698Z,1.97
2022-11-20T20:22:01.792Z,2.00
2022-11-20T20:24:38.741Z,2.02
2022-11-20T20:27:10.473Z,2.04
2022-11-20T20:29:42.277Z,2.11
2022-11-20T20:32:16.838Z,2.12
2022-11-20T20:34:48.489Z,2.14
2022-11-20T20:37:20.070Z,2.16
2022-11-20T20:39:51.728Z,2.21
2022-11-20T20:42:23.334Z,2.26
2022-11-20T20:45:11.253Z,2.30
2022-11-20T20:47:45.862Z,2.25
2022-11-20T20:50:20.848Z,2.27
2022-11-20T20:52:52.436Z,2.30
2022-11-20T20:55:25.287Z,2.30
2022-11-20T20:57:56.929Z,2.35
2022-11-20T21:00:28.668Z,2.38
2022-11-20T21:03:00.389Z,2.41
2022-11-20T21:05:32.044Z,2.44
2022-11-20T21:08:21.824Z,2.38
2022-11-20T21:11:03.157Z,2.37
2022-11-20T21:13:36.356Z,2.38
2022-11-20T21:16:08.105Z,2.41
2022-11-20T21:18:39.903Z,2.46
2022-11-20T21:21:35.618Z,2.50
2022-11-20T21:24:07.659Z,2.52
2022-11-20T21:26:39.370Z,2.52
2022-11-20T21:29:10.960Z,2.54
2022-11-20T21:31:42.879Z,2.60
2022-11-20T21:34:15.828Z,2.62
2022-11-20T21:36:47.693Z,2.62
2022-11-20T21:39:22.969Z,2.64
2022-11-20T21:41:54.973Z,2.67
2022-11-20T21:44:41.039Z,2.71
2022-11-20T21:47:13.030Z,2.73
2022-11-20T21:49:44.680Z,2.74
2022-11-20T21:52:17.712Z,2.72
2022-11-20T21:54:49.259Z,2.71
2022-11-20T21:57:21.013Z,2.71
2022-11-20T21:59:52.750Z,2.72
2022-11-20T22:02:24.950Z,2.73
2022-11-20T22:04:56.581Z,2.73
2022-11-20T22:07:28.215Z,2.74
2022-11-20T22:10:00.034Z,2.74
2022-11-20T22:12:32.288Z,2.75
2022-11-20T22:15:07.494Z,2.79
2022-11-20T22:17:57.964Z,2.79
2022-11-20T22:20:29.568Z,2.83
2022-11-20T22:23:01.336Z,2.87
2022-11-20T22:25:33.682Z,2.88
2022-11-20T22:28:08.051Z,2.86
2022-11-20T22:30:46.218Z,2.87
2022-11-20T22:33:21.324Z,2.88
2022-11-20T22:35:56.400Z,2.87
2022-11-20T22:38:35.073Z,2.88
2022-11-20T22:41:15.800Z,2.89
2022-11-20T22:44:12.497Z,2.93
2022-11-20T22:46:46.411Z,2.98
2022-11-20T22:49:21.116Z,2.99
2022-11-20T22:52:02.902Z,3.01
2022-11-20T22:54:38.288Z,3.03
2022-11-20T22:57:14.813Z,3.05
2022-11-20T22:59:46.421Z,3.00
2022-11-20T23:02:32.137Z,2.96
2022-11-20T23:05:07.060Z,2.95
2022-11-20T23:07:46.513Z,3.00
2022-11-20T23:10:25.896Z,3.03
2022-11-20T23:13:19.758Z,3.08
2022-11-20T23:16:46.047Z,3.11
2022-11-20T23:19:00.547Z,3.13
2022-11-20T23:21:36.678Z,3.14
2022-11-20T23:24:18.483Z,3.14
2022-11-20T23:26:51.262Z,3.16
2022-11-20T23:29:22.815Z,3.14
2022-11-20T23:31:54.432Z,3.13
2022-11-20T23:34:26.437Z,3.15
2022-11-20T23:36:58.252Z,3.11
2022-11-20T23:39:31.037Z,3.10
2022-11-20T23:42:02.969Z,3.10
2022-11-20T23:44:34.837Z,3.12
2022-11-20T23:47:06.652Z,3.14
2022-11-20T23:49:38.209Z,3.17
2022-11-20T23:52:12.333Z,3.18
2022-11-20T23:54:44.411Z,3.18
2022-11-20T23:57:16.122Z,3.20
